Aérodrome :
LOGIN :

S'inscrire | Disclaimer

   EN    FR    IT 

 










Légende :    VFR   VFR Marginal   IFR   IFR Intensif   IFR Très Intensif
Visi : 
Plafond : 
>= 8 km
>= 3000ft
5 à 8 km
1000 à 3000 ft
1500m à 5 km
500 à 1000 ft
800 à 1500m
200 à 500 ft
< 800m
< 200 ft
Symboles :   Orages  Brouillard  Fortes neiges  Fortes précipitations  Vent > 20 kt
SIGMETs :   Divers  Orages  Givrage  Turbulence  Onde Orograph.  Cendres Volcan.






- Altitude de l'aérodrome : 238 ft
- Code IATA : FAB


EGLF - Farnborough

DERNIER METAR :
  • 162150Z AUTO 19002KT 2700 BR NCD 02/02 Q1008

METARs EXPIRÉS :
  • 162120Z AUTO 22001KT 2100 BR SCT043/// 02/02 Q1008
  • 162050Z AUTO 21003KT 4200 BR SCT043/// 03/02 Q1008
  • 162020Z AUTO 23003KT 3700 BR NCD 03/03 Q1008
  • 161950Z AUTO 21002KT 7000 FEW044/// 04/03 Q1008
  • 161920Z AUTO VRB03KT 9999 OVC041/// 05/04 Q1008

Prévision TAF périmée.
ATIS : +44 09063 800 400 (*282)



MET'MAP, la Météo Aéronautique d'un coup d'oeil ! - Copyright ORBIFLY Décembre 2007 - Disclaimer

ORBIFLY MET'MAP TEAM :

Programmation & Développement : Alexandra Zaïnal
Conception & Développement : Baudouin d'Aumeries
Co-Programmation & Développement : Marc-Olivier Méhu
Soutien technique & logistique : Manuel Goepfert

Contact : metmap@orbifly.com




SOURCES & CREDITS :

   NOAA